Time;durP1;ratioP1;P1;durP2;ratioP2;P2;SDS_P1;SDS_P2;PMS_P1;PMS_P2;Temp;Humidity;BMP_temperature;BMP_pressure;BME280_temperature;BME280_humidity;BME280_pressure;Samples;Min_cycle;Max_cycle;Signal;HPM_P1;HPM_P2
2023/04/05 00:01:30;;;;;;;19.63;1.93;;;3.00;99.90;;;;;;4986857;28;20413;-76
2023/04/05 00:03:57;;;;;;;5.93;2.83;;;2.90;99.90;;;;;;4985350;28;20046;-77
2023/04/05 00:06:30;;;;;;;1.40;1.30;;;2.90;99.90;;;;;;4986784;28;20054;-76
2023/04/05 00:08:58;;;;;;;1.83;1.67;;;2.90;99.90;;;;;;4984127;28;20066;-77
2023/04/05 00:11:28;;;;;;;1.53;1.43;;;2.90;99.90;;;;;;4985384;28;20058;-76
2023/04/05 00:13:55;;;;;;;2.27;2.07;;;2.90;99.90;;;;;;4986777;28;20406;-76
2023/04/05 00:16:21;;;;;;;1.47;1.37;;;2.90;99.90;;;;;;4986687;28;20043;-76
2023/04/05 00:18:50;;;;;;;2.58;2.47;;;2.90;99.90;;;;;;4969146;28;20042;-76
2023/04/05 00:21:20;;;;;;;3.33;3.10;;;2.80;99.90;;;;;;4968492;28;20042;-76
2023/04/05 00:23:47;;;;;;;3.80;2.43;;;2.80;99.90;;;;;;4984302;28;20058;-77
2023/04/05 00:26:13;;;;;;;4.27;2.70;;;2.80;99.90;;;;;;4985092;28;20042;-76
2023/04/05 00:28:38;;;;;;;1.97;1.87;;;2.80;99.90;;;;;;4984651;28;20042;-76
2023/04/05 00:31:04;;;;;;;2.83;2.57;;;2.70;99.90;;;;;;4986230;28;20046;-76
2023/04/05 00:33:30;;;;;;;1.92;1.83;;;2.70;99.90;;;;;;4985602;28;20038;-76
2023/04/05 00:35:56;;;;;;;2.33;2.23;;;2.70;99.90;;;;;;4984639;28;20057;-77
2023/04/05 00:38:21;;;;;;;1.93;1.83;;;2.70;99.90;;;;;;4985008;28;20072;-76
2023/04/05 00:40:47;;;;;;;1.90;1.70;;;2.70;99.90;;;;;;4985088;28;20049;-76
2023/04/05 00:43:13;;;;;;;4.43;2.67;;;2.70;99.90;;;;;;4985826;28;20042;-76
2023/04/05 00:45:39;;;;;;;2.10;1.90;;;2.70;99.90;;;;;;4985431;28;20069;-76
2023/04/05 00:48:05;;;;;;;2.70;1.83;;;2.60;99.90;;;;;;4984768;28;20143;-76
2023/04/05 00:50:31;;;;;;;2.40;1.93;;;2.60;99.90;;;;;;4985057;28;20572;-76
2023/04/05 00:52:57;;;;;;;2.40;2.13;;;2.60;99.90;;;;;;4985567;28;20042;-76
2023/04/05 00:55:25;;;;;;;1.77;1.30;;;2.60;99.90;;;;;;4983768;28;20050;-76
2023/04/05 00:57:52;;;;;;;2.63;2.27;;;2.60;99.90;;;;;;4984817;28;20057;-76
2023/04/05 01:00:20;;;;;;;2.63;2.53;;;2.60;99.90;;;;;;4984117;28;20045;-76
2023/04/05 01:02:53;;;;;;;2.53;2.07;;;2.60;99.90;;;;;;5054273;23;20049;-76
2023/04/05 01:05:37;;;;;;;2.20;2.00;;;2.60;99.90;;;;;;5044247;28;20514;-76
2023/04/05 01:08:31;;;;;;;7.97;2.40;;;2.60;99.90;;;;;;5043743;28;20528;-76
2023/04/05 01:11:02;;;;;;;2.40;2.27;;;2.50;99.90;;;;;;5025469;28;20048;-77
2023/04/05 01:13:29;;;;;;;1.77;1.67;;;2.50;99.90;;;;;;5044538;28;20044;-76
2023/04/05 01:15:54;;;;;;;2.50;2.40;;;2.50;99.90;;;;;;5044230;28;20695;-77
2023/04/05 01:18:23;;;;;;;1.13;1.13;;;2.50;99.90;;;;;;5043918;28;20037;-76
2023/04/05 01:21:19;;;;;;;3.90;2.10;;;2.50;99.90;;;;;;5034394;28;20052;-76
2023/04/05 01:24:17;;;;;;;0.97;0.97;;;2.50;99.90;;;;;;4984693;28;20484;-76
2023/04/05 01:27:00;;;;;;;2.43;2.30;;;2.50;99.90;;;;;;4998128;28;20060;-76
2023/04/05 01:29:39;;;;;;;3.80;3.07;;;2.50;99.90;;;;;;5024312;28;20056;-77
2023/04/05 01:32:14;;;;;;;1.27;1.27;;;2.50;99.90;;;;;;5025481;28;20037;-76
2023/04/05 01:34:45;;;;;;;6.07;3.00;;;2.50;99.90;;;;;;5024203;28;20046;-76
2023/04/05 01:37:17;;;;;;;1.80;1.70;;;2.40;99.90;;;;;;5026804;28;20042;-76
2023/04/05 01:39:43;;;;;;;2.70;2.47;;;2.40;99.90;;;;;;5043034;28;20098;-76
2023/04/05 01:42:09;;;;;;;2.33;2.23;;;2.40;99.90;;;;;;5044307;28;20095;-76
2023/04/05 01:44:35;;;;;;;3.03;2.13;;;2.30;99.90;;;;;;5043641;28;20534;-76
2023/04/05 01:47:00;;;;;;;2.33;2.23;;;2.30;99.90;;;;;;5039923;28;20049;-76
2023/04/05 01:49:26;;;;;;;2.20;2.00;;;2.40;99.90;;;;;;5034334;28;20048;-77
2023/04/05 01:51:51;;;;;;;5.10;2.53;;;2.30;99.90;;;;;;5044463;28;20037;-76
2023/04/05 01:54:17;;;;;;;1.73;1.63;;;2.30;99.90;;;;;;5041780;28;20080;-75
2023/04/05 01:56:42;;;;;;;2.03;1.93;;;2.30;99.90;;;;;;5043443;28;20075;-76
2023/04/05 01:59:08;;;;;;;4.17;2.23;;;2.30;99.90;;;;;;5043921;28;20048;-76
2023/04/05 02:01:34;;;;;;;1.53;1.53;;;2.30;99.90;;;;;;5043852;28;20047;-76
2023/04/05 02:03:59;;;;;;;3.80;2.23;;;2.30;99.90;;;;;;5027812;28;20037;-76
2023/04/05 02:06:25;;;;;;;3.27;2.70;;;2.20;99.90;;;;;;5022865;28;20411;-77
2023/04/05 02:08:51;;;;;;;2.37;1.93;;;2.20;99.90;;;;;;5023189;28;20532;-76
2023/04/05 02:11:16;;;;;;;1.13;1.13;;;2.20;99.90;;;;;;5024162;28;20045;-74
2023/04/05 02:13:42;;;;;;;4.33;2.10;;;2.10;99.90;;;;;;5023497;28;20555;-75
2023/04/05 02:16:08;;;;;;;1.07;1.07;;;2.10;99.90;;;;;;5022360;28;20053;-75
2023/04/05 02:18:34;;;;;;;3.17;2.87;;;2.10;99.90;;;;;;5025969;28;20479;-75
2023/04/05 02:21:04;;;;;;;3.00;2.40;;;2.10;99.90;;;;;;5027945;28;20172;-75
2023/04/05 02:23:31;;;;;;;1.83;1.73;;;2.10;99.90;;;;;;5025666;28;20045;-75
2023/04/05 02:25:57;;;;;;;7.53;2.37;;;2.00;99.90;;;;;;5027757;28;20051;-75
2023/04/05 02:28:23;;;;;;;3.23;2.27;;;2.00;99.90;;;;;;5028278;28;20037;-75
2023/04/05 02:30:49;;;;;;;2.10;2.00;;;2.00;99.90;;;;;;5027348;28;20107;-74
2023/04/05 02:33:14;;;;;;;2.60;2.40;;;2.00;99.90;;;;;;5026826;28;20085;-75
2023/04/05 02:35:40;;;;;;;2.47;1.73;;;2.00;99.90;;;;;;5026328;28;20050;-75
2023/04/05 02:38:07;;;;;;;1.00;1.00;;;2.00;99.90;;;;;;5027362;28;20049;-75
2023/04/05 02:40:33;;;;;;;3.87;2.23;;;2.00;99.90;;;;;;5026290;28;20048;-77
2023/04/05 02:42:59;;;;;;;1.80;1.73;;;2.00;99.90;;;;;;5027998;28;20041;-77
2023/04/05 02:45:26;;;;;;;2.07;1.97;;;1.90;99.90;;;;;;5047016;28;20059;-77
2023/04/05 02:47:53;;;;;;;1.77;1.67;;;1.90;99.90;;;;;;5034690;28;20388;-77
2023/04/05 02:50:19;;;;;;;5.03;3.07;;;1.90;99.90;;;;;;5027456;28;20527;-76
2023/04/05 02:52:51;;;;;;;3.03;2.87;;;1.90;99.90;;;;;;5027287;28;20088;-76
2023/04/05 02:55:17;;;;;;;2.15;1.90;;;1.80;99.90;;;;;;5024818;28;20490;-76
2023/04/05 02:57:43;;;;;;;2.77;1.17;;;1.80;99.90;;;;;;5028036;28;20507;-76
2023/04/05 03:00:10;;;;;;;3.23;2.80;;;1.90;99.90;;;;;;5047337;28;20035;-76
2023/04/05 03:02:37;;;;;;;3.50;3.20;;;1.90;99.90;;;;;;5046715;28;20053;-76
2023/04/05 03:05:03;;;;;;;3.20;2.33;;;1.90;99.90;;;;;;5045939;28;20041;-76
2023/04/05 03:07:29;;;;;;;2.67;2.00;;;1.90;99.90;;;;;;5046492;28;20041;-77
2023/04/05 03:09:55;;;;;;;2.47;2.07;;;1.90;99.90;;;;;;5033987;28;20136;-77
2023/04/05 03:12:21;;;;;;;1.83;1.73;;;1.90;99.90;;;;;;5027552;28;20054;-76
2023/04/05 03:14:47;;;;;;;5.87;2.83;;;1.90;99.90;;;;;;5025150;28;20041;-76
2023/04/05 03:17:13;;;;;;;1.77;1.67;;;1.80;99.90;;;;;;5025659;28;20056;-76
2023/04/05 03:19:38;;;;;;;2.17;2.07;;;1.80;99.90;;;;;;5026561;28;20496;-76
2023/04/05 03:22:04;;;;;;;4.47;2.03;;;1.70;99.90;;;;;;5026695;28;20049;-76
2023/04/05 03:24:30;;;;;;;2.70;2.50;;;1.70;99.90;;;;;;5025271;28;20037;-76
2023/04/05 03:27:01;;;;;;;2.07;1.97;;;1.70;99.90;;;;;;5025276;28;20211;-77
2023/04/05 03:29:26;;;;;;;2.73;2.53;;;1.70;99.90;;;;;;5024541;28;20069;-77
2023/04/05 03:31:52;;;;;;;2.30;2.20;;;1.70;99.90;;;;;;5026783;28;20209;-76
2023/04/05 03:34:18;;;;;;;1.93;1.83;;;1.60;99.90;;;;;;5026721;28;20053;-76
2023/04/05 03:36:44;;;;;;;3.40;3.10;;;1.60;99.90;;;;;;5024976;28;20447;-76
2023/04/05 03:39:13;;;;;;;2.13;2.03;;;1.50;99.90;;;;;;5025138;28;20052;-76
2023/04/05 03:41:39;;;;;;;2.33;2.20;;;1.50;99.90;;;;;;5025039;28;20045;-76
2023/04/05 03:44:06;;;;;;;6.77;2.03;;;1.50;99.90;;;;;;5025416;28;20376;-76
2023/04/05 03:46:32;;;;;;;3.30;2.40;;;1.50;99.90;;;;;;5025861;28;20395;-76
2023/04/05 03:48:59;;;;;;;3.23;3.03;;;1.50;99.90;;;;;;5046354;28;20037;-76
2023/04/05 03:51:26;;;;;;;3.43;3.23;;;1.50;99.90;;;;;;5046070;28;20060;-77
2023/04/05 03:53:51;;;;;;;3.20;2.97;;;1.50;99.90;;;;;;5044253;28;20642;-76
2023/04/05 03:56:17;;;;;;;3.40;3.10;;;1.50;99.90;;;;;;5045198;28;20124;-76
2023/04/05 03:58:43;;;;;;;2.93;2.13;;;1.50;99.90;;;;;;5044592;28;20116;-76
2023/04/05 04:01:09;;;;;;;7.23;2.37;;;1.50;99.90;;;;;;5045771;28;20821;-76
2023/04/05 04:03:36;;;;;;;3.83;3.37;;;1.50;99.90;;;;;;5027758;28;20483;-76
2023/04/05 04:06:03;;;;;;;4.27;2.37;;;1.50;99.90;;;;;;5032199;28;20033;-76
2023/04/05 04:08:28;;;;;;;4.03;3.73;;;1.40;99.90;;;;;;5023619;28;20289;-76
2023/04/05 04:10:54;;;;;;;3.03;2.77;;;1.40;99.90;;;;;;5025831;28;20396;-76
2023/04/05 04:13:20;;;;;;;5.37;2.40;;;1.40;99.90;;;;;;5026495;28;20112;-76
2023/04/05 04:15:45;;;;;;;2.33;2.23;;;1.40;99.90;;;;;;5024486;28;20053;-76
2023/04/05 04:18:11;;;;;;;5.20;3.07;;;1.40;99.90;;;;;;5025420;28;20045;-76
2023/04/05 04:20:37;;;;;;;3.50;2.53;;;1.40;99.90;;;;;;5025741;28;20467;-76
2023/04/05 04:23:05;;;;;;;2.00;1.90;;;1.40;99.90;;;;;;5025559;28;20590;-76
2023/04/05 04:25:30;;;;;;;3.03;2.90;;;1.40;99.90;;;;;;5023342;28;20049;-76
2023/04/05 04:27:56;;;;;;;4.37;3.23;;;1.40;99.90;;;;;;5024391;28;20045;-76
2023/04/05 04:30:22;;;;;;;2.00;1.90;;;1.40;99.90;;;;;;5025983;28;20042;-76
2023/04/05 04:32:54;;;;;;;2.83;2.60;;;1.40;99.90;;;;;;5024032;28;20478;-76
2023/04/05 04:35:25;;;;;;;12.02;4.47;;;1.40;99.90;;;;;;5024427;28;20072;-76
2023/04/05 04:38:02;;;;;;;3.13;2.83;;;1.40;99.90;;;;;;5024504;28;20046;-76
2023/04/05 04:40:38;;;;;;;1.90;1.13;;;1.40;99.90;;;;;;5023982;28;20076;-76
2023/04/05 04:43:17;;;;;;;4.07;2.80;;;1.50;99.90;;;;;;5024672;28;20095;-76
2023/04/05 04:45:47;;;;;;;3.33;3.10;;;1.50;99.90;;;;;;5023712;28;20111;-76
2023/04/05 04:48:15;;;;;;;1.87;1.87;;;1.50;99.90;;;;;;5031414;28;20041;-76
2023/04/05 04:50:44;;;;;;;2.63;2.43;;;1.40;99.90;;;;;;5025025;28;20128;-76
2023/04/05 04:53:12;;;;;;;4.27;2.70;;;1.40;99.90;;;;;;5023383;28;20049;-76
2023/04/05 04:55:41;;;;;;;8.00;2.37;;;1.30;99.90;;;;;;5023192;28;20659;-76
2023/04/05 04:58:10;;;;;;;13.53;2.40;;;1.30;99.90;;;;;;5013850;28;20041;-76
2023/04/05 05:00:42;;;;;;;3.13;2.93;;;1.30;99.90;;;;;;5043073;28;20091;-76
2023/04/05 05:03:10;;;;;;;;;;;1.30;99.90;;;;;;5043712;28;20128;-76
2023/04/05 05:05:41;;;;;;;2.23;2.13;;;1.30;99.90;;;;;;5043357;28;20329;-76
2023/04/05 05:08:06;;;;;;;1.83;1.73;;;1.30;99.90;;;;;;5043847;28;20072;-76
2023/04/05 05:10:32;;;;;;;3.40;3.20;;;1.20;99.90;;;;;;5044434;28;20518;-76
2023/04/05 05:12:58;;;;;;;3.80;3.50;;;1.30;99.90;;;;;;5042856;28;20553;-77
2023/04/05 05:15:23;;;;;;;2.80;2.60;;;1.30;99.90;;;;;;5043630;28;20072;-76
2023/04/05 05:17:51;;;;;;;4.17;3.77;;;1.30;99.90;;;;;;5043197;28;20095;-76
2023/04/05 05:20:17;;;;;;;3.20;3.00;;;1.30;99.90;;;;;;5044490;28;20502;-76
2023/04/05 05:22:43;;;;;;;3.63;3.23;;;1.30;99.90;;;;;;5044371;28;20041;-76
2023/04/05 05:25:11;;;;;;;2.80;2.57;;;1.40;99.90;;;;;;5040911;28;20037;-76
2023/04/05 05:27:36;;;;;;;1.33;1.27;;;1.40;99.90;;;;;;5044058;28;20557;-76
2023/04/05 05:30:03;;;;;;;3.83;3.53;;;1.40;99.90;;;;;;5044084;28;20045;-76
2023/04/05 05:32:28;;;;;;;2.80;2.60;;;1.30;99.90;;;;;;5044086;28;20040;-76
2023/04/05 05:34:54;;;;;;;5.33;3.73;;;1.40;99.90;;;;;;5044855;28;20044;-76
2023/04/05 05:37:28;;;;;;;3.00;2.27;;;1.40;99.90;;;;;;5044543;28;20104;-76
2023/04/05 05:39:54;;;;;;;3.10;2.90;;;1.40;99.90;;;;;;5037662;28;20045;-76
2023/04/05 05:42:20;;;;;;;4.67;4.27;;;1.40;99.90;;;;;;5029403;28;20051;-76
2023/04/05 05:44:45;;;;;;;2.97;2.43;;;1.40;99.90;;;;;;5035097;28;20053;-76
2023/04/05 05:47:11;;;;;;;7.80;4.00;;;1.40;99.90;;;;;;5030825;28;20452;-76
2023/04/05 05:49:37;;;;;;;4.30;2.90;;;1.40;99.90;;;;;;5030464;28;20040;-76
2023/04/05 05:52:03;;;;;;;3.87;3.63;;;1.40;99.90;;;;;;5035347;28;20029;-76
2023/04/05 05:54:28;;;;;;;2.93;2.73;;;1.40;99.90;;;;;;5007986;28;20502;-77
2023/04/05 05:56:54;;;;;;;4.80;4.40;;;1.50;99.90;;;;;;5027263;28;20041;-83
2023/04/05 05:59:19;;;;;;;5.83;4.63;;;1.50;99.90;;;;;;5040497;28;20045;-76
2023/04/05 06:01:45;;;;;;;3.83;3.23;;;1.50;99.90;;;;;;5029575;28;20045;-76
2023/04/05 06:04:12;;;;;;;3.73;3.43;;;1.60;99.90;;;;;;5036828;28;20059;-75
2023/04/05 06:06:37;;;;;;;3.83;3.53;;;1.60;99.90;;;;;;5040833;28;20050;-76
2023/04/05 06:09:03;;;;;;;4.73;4.27;;;1.60;99.90;;;;;;5024033;28;20049;-75
2023/04/05 06:11:29;;;;;;;3.90;3.53;;;1.60;99.90;;;;;;5034386;28;20720;-76
2023/04/05 06:13:54;;;;;;;5.60;3.53;;;1.70;99.90;;;;;;5043772;28;20079;-76
2023/04/05 06:16:20;;;;;;;4.53;4.10;;;1.70;99.90;;;;;;5040918;28;20037;-75
2023/04/05 06:18:46;;;;;;;7.63;5.43;;;1.80;99.90;;;;;;5039792;28;20053;-77
2023/04/05 06:21:13;;;;;;;8.27;5.07;;;1.80;99.90;;;;;;5026152;28;20053;-77
2023/04/05 06:23:40;;;;;;;6.93;6.43;;;1.80;99.90;;;;;;5005250;28;20049;-77
2023/04/05 06:26:20;;;;;;;7.13;4.63;;;1.90;99.90;;;;;;5023211;28;20037;-76
2023/04/05 06:28:49;;;;;;;4.07;3.87;;;1.90;99.90;;;;;;5023616;28;20169;-77
2023/04/05 06:31:16;;;;;;;4.47;4.17;;;2.00;99.90;;;;;;5021740;28;20046;-76
2023/04/05 06:33:42;;;;;;;5.60;5.13;;;2.00;99.90;;;;;;5037356;28;20120;-76
2023/04/05 06:36:08;;;;;;;4.40;4.00;;;2.00;99.90;;;;;;5046720;28;20095;-77
2023/04/05 06:38:34;;;;;;;4.97;4.67;;;2.10;99.90;;;;;;5041852;28;20037;-77
2023/04/05 06:41:00;;;;;;;3.17;2.97;;;2.10;99.90;;;;;;5025318;28;20041;-77
2023/04/05 06:43:25;;;;;;;4.97;4.63;;;2.20;99.90;;;;;;5041220;28;20116;-77
2023/04/05 06:45:51;;;;;;;4.33;4.03;;;2.20;99.90;;;;;;5042100;28;20414;-77
2023/04/05 06:48:16;;;;;;;5.80;5.03;;;2.30;99.90;;;;;;5026300;28;20514;-77
2023/04/05 06:50:42;;;;;;;4.57;4.27;;;2.30;99.90;;;;;;5023352;28;20124;-77
2023/04/05 06:53:08;;;;;;;7.93;7.30;;;2.30;99.90;;;;;;5021975;28;20048;-77
2023/04/05 06:55:33;;;;;;;7.53;6.70;;;2.40;99.90;;;;;;5022186;28;20085;-77
2023/04/05 06:57:59;;;;;;;12.97;4.57;;;2.40;99.90;;;;;;5021881;28;20092;-77
2023/04/05 07:00:24;;;;;;;5.07;4.67;;;2.50;99.90;;;;;;5021187;28;20285;-77
2023/04/05 07:02:50;;;;;;;5.90;5.30;;;2.40;99.90;;;;;;5027905;28;20136;-78
2023/04/05 07:05:16;;;;;;;7.40;5.67;;;2.50;99.90;;;;;;5027631;28;20041;-78
2023/04/05 07:07:43;;;;;;;5.80;5.27;;;2.50;99.90;;;;;;5033338;28;20121;-78
2023/04/05 07:10:09;;;;;;;5.43;4.90;;;2.50;99.90;;;;;;5036365;28;20045;-78
2023/04/05 07:12:35;;;;;;;5.27;4.80;;;2.60;99.90;;;;;;5032634;28;20045;-77
2023/04/05 07:15:01;;;;;;;7.30;5.93;;;2.60;99.90;;;;;;5036750;28;20045;-78
2023/04/05 07:17:26;;;;;;;5.67;5.17;;;2.70;99.90;;;;;;5041653;28;20040;-78
2023/04/05 07:19:52;;;;;;;9.13;6.03;;;2.70;99.90;;;;;;5035084;28;20033;-76
2023/04/05 07:22:18;;;;;;;7.87;6.80;;;2.70;99.90;;;;;;5026672;28;20128;-76
2023/04/05 07:24:45;;;;;;;4.53;4.10;;;2.70;99.90;;;;;;5038941;28;20110;-76
2023/04/05 07:27:11;;;;;;;7.00;4.83;;;2.80;99.90;;;;;;5041315;28;20527;-76
2023/04/05 07:29:39;;;;;;;9.20;6.23;;;2.80;99.90;;;;;;5025352;28;20088;-76
2023/04/05 07:32:06;;;;;;;6.60;5.20;;;2.80;99.90;;;;;;5024574;28;20037;-76
2023/04/05 07:34:33;;;;;;;6.50;6.03;;;2.80;99.90;;;;;;5026346;28;20107;-76
2023/04/05 07:36:58;;;;;;;6.17;5.63;;;2.90;99.90;;;;;;5031178;28;20132;-77
2023/04/05 07:39:24;;;;;;;4.83;4.40;;;2.90;99.90;;;;;;5021220;28;20140;-78
2023/04/05 07:41:50;;;;;;;5.20;4.70;;;2.90;99.90;;;;;;5045286;28;20135;-77
2023/04/05 07:44:16;;;;;;;10.67;5.03;;;3.00;99.90;;;;;;5030842;28;20119;-77
2023/04/05 07:46:44;;;;;;;5.97;5.40;;;3.00;99.90;;;;;;5044293;28;20446;-77
2023/04/05 07:49:13;;;;;;;7.60;7.00;;;3.10;99.90;;;;;;5028071;28;20037;-77
2023/04/05 07:51:39;;;;;;;6.23;5.80;;;3.10;99.90;;;;;;5032065;28;20037;-77
2023/04/05 07:54:05;;;;;;;12.17;5.30;;;3.10;99.90;;;;;;5024563;28;20111;-77
2023/04/05 07:56:31;;;;;;;7.93;6.83;;;3.20;99.90;;;;;;5025021;28;20408;-78
2023/04/05 07:58:57;;;;;;;4.90;4.43;;;3.20;99.90;;;;;;5038994;28;20052;-78
2023/04/05 08:01:26;;;;;;;7.23;4.20;;;3.20;99.90;;;;;;5044788;28;20053;-77
2023/04/05 08:03:58;;;;;;;8.30;5.13;;;3.30;99.90;;;;;;5044229;28;20056;-78
2023/04/05 08:06:26;;;;;;;6.20;4.43;;;3.40;99.90;;;;;;5044620;28;20052;-77
2023/04/05 08:08:51;;;;;;;5.87;4.13;;;3.40;99.90;;;;;;5043277;28;20056;-77
2023/04/05 08:11:17;;;;;;;4.10;3.77;;;3.40;99.90;;;;;;5044830;28;20037;-77
2023/04/05 08:13:43;;;;;;;4.33;4.13;;;3.50;99.90;;;;;;5043574;28;20123;-77
2023/04/05 08:16:10;;;;;;;5.93;5.43;;;3.50;99.90;;;;;;5044364;28;20052;-77
2023/04/05 08:18:36;;;;;;;6.43;6.03;;;3.60;99.90;;;;;;5035410;28;20376;-78
2023/04/05 08:21:02;;;;;;;6.20;5.43;;;3.60;99.90;;;;;;5017748;28;20499;-77
2023/04/05 08:23:27;;;;;;;5.43;3.97;;;3.60;99.90;;;;;;5033741;28;20036;-78
2023/04/05 08:25:53;;;;;;;5.13;4.70;;;3.70;99.90;;;;;;5025461;28;20484;-78
2023/04/05 08:28:19;;;;;;;4.23;3.97;;;3.70;99.90;;;;;;5033219;28;20412;-77
2023/04/05 08:30:45;;;;;;;6.10;5.57;;;3.80;99.90;;;;;;5032796;28;20118;-78
2023/04/05 08:33:11;;;;;;;8.20;5.80;;;3.80;99.90;;;;;;5035032;28;20555;-77
2023/04/05 08:35:38;;;;;;;3.07;2.87;;;3.80;99.90;;;;;;5023767;28;20233;-78
2023/04/05 08:38:05;;;;;;;6.57;5.17;;;3.90;99.90;;;;;;5034451;28;20072;-78
2023/04/05 08:40:42;;;;;;;4.90;3.87;;;3.90;99.90;;;;;;5033285;28;20304;-78
2023/04/05 08:43:33;;;;;;;4.20;3.97;;;4.00;99.90;;;;;;5035360;28;20041;-78
2023/04/05 08:46:00;;;;;;;5.33;3.67;;;4.00;99.90;;;;;;5034735;28;20152;-78
2023/04/05 08:48:30;;;;;;;5.70;4.20;;;4.10;99.90;;;;;;5019560;28;20120;-79
2023/04/05 08:50:55;;;;;;;10.10;2.60;;;4.10;99.90;;;;;;5023956;28;20053;-79
2023/04/05 08:53:22;;;;;;;4.53;4.13;;;4.10;99.90;;;;;;5038676;28;20064;-77
2023/04/05 08:55:52;;;;;;;4.07;3.70;;;4.20;99.90;;;;;;5041555;28;20518;-77
2023/04/05 08:58:23;;;;;;;6.67;3.90;;;4.20;99.90;;;;;;5039669;28;20487;-79
2023/04/05 09:00:50;;;;;;;3.10;2.90;;;4.30;99.90;;;;;;5022891;28;20099;-79
2023/04/05 09:03:30;;;;;;;2.30;2.10;;;4.30;99.90;;;;;;5027519;28;20069;-79
2023/04/05 09:05:58;;;;;;;6.83;3.90;;;4.30;99.90;;;;;;5046697;28;20056;-79
2023/04/05 09:08:23;;;;;;;5.03;4.53;;;4.40;99.90;;;;;;5043456;28;20048;-79
2023/04/05 09:10:52;;;;;;;6.00;4.30;;;4.40;99.90;;;;;;5043680;28;20045;-79
2023/04/05 09:13:18;;;;;;;5.38;4.07;;;4.50;99.90;;;;;;5043862;28;20033;-80
2023/04/05 09:15:45;;;;;;;3.73;3.43;;;4.50;99.90;;;;;;5041956;28;20102;-79
2023/04/05 09:18:11;;;;;;;4.07;3.63;;;4.50;99.90;;;;;;5043799;28;20269;-79
2023/04/05 09:20:37;;;;;;;4.17;3.30;;;4.60;99.90;;;;;;5042575;28;20047;-79
2023/04/05 09:23:03;;;;;;;4.63;4.00;;;4.60;99.90;;;;;;5041266;28;20136;-79
2023/04/05 09:25:31;;;;;;;4.90;3.50;;;4.70;99.90;;;;;;5043061;28;20044;-79
2023/04/05 09:28:03;;;;;;;2.83;2.63;;;4.80;99.90;;;;;;5034872;28;20042;-79
2023/04/05 09:30:29;;;;;;;;;;;4.80;99.90;;;;;;5023228;28;20045;-79
2023/04/05 09:32:56;;;;;;;4.68;4.28;;;4.80;99.90;;;;;;5036707;28;19920;-79
2023/04/05 09:35:23;;;;;;;5.38;3.88;;;4.90;99.90;;;;;;5029102;28;20057;-78
2023/04/05 09:37:55;;;;;;;7.35;3.67;;;5.00;99.90;;;;;;5023607;28;20471;-79
2023/04/05 09:40:21;;;;;;;4.37;4.07;;;5.00;99.90;;;;;;5023217;28;20128;-81
2023/04/05 09:42:48;;;;;;;2.67;2.47;;;5.00;99.90;;;;;;5033556;28;20086;-79
2023/04/05 09:45:17;;;;;;;5.75;3.33;;;5.00;99.90;;;;;;5025339;28;20151;-80
2023/04/05 09:47:53;;;;;;;3.92;3.22;;;5.00;99.90;;;;;;5024392;28;20087;-80
2023/04/05 09:50:19;;;;;;;5.25;4.35;;;5.10;99.90;;;;;;5028864;28;20060;-80
2023/04/05 09:52:45;;;;;;;3.65;3.35;;;5.20;99.90;;;;;;5032675;28;20102;-80
2023/04/05 09:55:11;;;;;;;4.60;3.17;;;5.20;99.90;;;;;;5029403;28;20034;-80
2023/04/05 09:57:39;;;;;;;3.65;3.33;;;5.20;99.90;;;;;;5037834;28;20091;-80
2023/04/05 10:00:16;;;;;;;3.85;3.55;;;5.30;99.90;;;;;;5022248;28;20057;-80
2023/04/05 10:02:42;;;;;;;4.35;3.20;;;5.30;99.90;;;;;;5041208;28;20041;-80
2023/04/05 10:05:12;;;;;;;4.72;3.05;;;5.30;99.90;;;;;;5042098;28;20044;-79
2023/04/05 10:07:42;;;;;;;5.70;3.72;;;5.40;99.90;;;;;;5024686;28;20084;-81
2023/04/05 10:10:11;;;;;;;2.88;2.67;;;5.40;99.90;;;;;;5040413;28;20507;-78
2023/04/05 10:12:40;;;;;;;5.00;4.03;;;5.40;99.90;;;;;;5042302;28;20072;-78
2023/04/05 10:15:10;;;;;;;2.47;2.25;;;5.40;99.90;;;;;;5029145;28;20503;-79
2023/04/05 10:17:48;;;;;;;4.47;2.92;;;5.50;99.90;;;;;;5024851;28;20049;-78
2023/04/05 10:20:15;;;;;;;2.85;2.58;;;5.50;99.90;;;;;;5032445;28;20051;-78
2023/04/05 10:23:18;;;;;;;3.72;3.42;;;5.60;99.90;;;;;;5023508;28;20045;-78
2023/04/05 10:25:52;;;;;;;1.60;1.48;;;5.60;99.90;;;;;;4999598;28;20054;-78
2023/04/05 10:28:41;;;;;;;5.25;2.83;;;5.60;99.90;;;;;;5038895;28;20045;-78
2023/04/05 10:31:30;;;;;;;3.17;2.83;;;5.60;99.90;;;;;;5033733;28;20037;-78
2023/04/05 10:34:07;;;;;;;4.60;3.60;;;5.60;99.90;;;;;;5042059;28;20091;-77
2023/04/05 10:36:56;;;;;;;3.67;2.83;;;5.70;99.90;;;;;;5012815;28;20067;-77
2023/04/05 10:39:29;;;;;;;4.05;3.22;;;5.70;99.90;;;;;;5035122;28;20424;-77
2023/04/05 10:42:14;;;;;;;4.28;3.97;;;5.80;99.90;;;;;;5040933;28;20029;-79
2023/04/05 10:44:42;;;;;;;2.65;2.45;;;5.80;99.90;;;;;;5037619;28;20055;-77
2023/04/05 10:47:12;;;;;;;4.53;3.47;;;5.80;99.90;;;;;;5031858;28;20049;-78
2023/04/05 10:49:38;;;;;;;4.45;3.42;;;5.90;99.90;;;;;;5027314;28;20038;-77
2023/04/05 10:52:05;;;;;;;8.85;2.92;;;5.90;99.90;;;;;;5041755;28;20063;-77
2023/04/05 10:54:35;;;;;;;3.03;2.72;;;5.90;99.90;;;;;;5027418;28;20048;-77
2023/04/05 10:57:05;;;;;;;2.50;2.28;;;6.10;99.90;;;;;;5032292;28;20053;-77
2023/04/05 10:59:32;;;;;;;2.58;1.67;;;6.10;99.90;;;;;;5030064;28;20052;-77
2023/04/05 11:01:58;;;;;;;4.28;1.67;;;6.20;99.90;;;;;;5046074;28;20040;-77
2023/04/05 11:04:23;;;;;;;2.85;2.33;;;6.20;99.90;;;;;;5039233;28;20083;-76
2023/04/05 11:07:13;;;;;;;3.13;2.22;;;6.20;99.90;;;;;;5025365;28;20052;-76
2023/04/05 11:10:14;;;;;;;2.22;2.13;;;6.20;99.90;;;;;;5026234;28;20150;-77
2023/04/05 11:12:52;;;;;;;2.28;2.00;;;6.30;99.90;;;;;;5009114;28;20065;-77
2023/04/05 11:15:31;;;;;;;7.03;3.90;;;6.40;99.90;;;;;;5028054;28;20060;-77
2023/04/05 11:18:06;;;;;;;3.33;3.13;;;6.40;99.90;;;;;;5025697;28;20083;-77
2023/04/05 11:20:51;;;;;;;3.70;1.95;;;6.40;99.90;;;;;;5024807;28;20124;-76
2023/04/05 11:23:22;;;;;;;2.47;2.28;;;6.40;99.90;;;;;;5025625;28;20053;-76
2023/04/05 11:25:51;;;;;;;3.08;2.45;;;6.50;99.90;;;;;;5028276;28;20072;-77
2023/04/05 11:28:27;;;;;;;2.85;2.42;;;6.60;99.90;;;;;;5026520;28;20160;-77
2023/04/05 11:31:02;;;;;;;1.73;1.60;;;6.60;99.90;;;;;;5009197;28;20049;-77
2023/04/05 11:33:53;;;;;;;3.08;2.88;;;6.60;99.90;;;;;;5024631;28;20129;-77
2023/04/05 11:36:35;;;;;;;6.20;3.58;;;6.60;99.90;;;;;;5025335;28;20124;-77
2023/04/05 11:39:19;;;;;;;6.05;2.33;;;6.60;99.90;;;;;;5024806;28;20504;-77
2023/04/05 11:41:54;;;;;;;2.15;1.95;;;6.70;99.90;;;;;;5024508;28;20065;-77
2023/04/05 11:44:20;;;;;;;2.72;2.53;;;6.70;99.90;;;;;;5030790;28;20041;-77
2023/04/05 11:46:46;;;;;;;4.40;2.60;;;6.70;99.90;;;;;;5042312;28;20544;-77
2023/04/05 11:49:13;;;;;;;3.03;2.63;;;6.70;99.90;;;;;;5024702;28;20109;-77
2023/04/05 11:51:42;;;;;;;2.92;2.30;;;6.70;99.90;;;;;;5029490;28;20045;-77
2023/04/05 11:54:09;;;;;;;3.15;1.60;;;6.70;99.90;;;;;;5036842;28;20046;-77
2023/04/05 11:56:35;;;;;;;2.45;2.25;;;6.80;99.90;;;;;;5024572;28;20041;-77
2023/04/05 11:59:00;;;;;;;3.22;2.92;;;6.80;99.90;;;;;;5044445;28;20051;-77
2023/04/05 12:01:27;;;;;;;2.65;1.73;;;6.70;99.90;;;;;;5040828;28;20045;-78
2023/04/05 12:03:54;;;;;;;2.72;2.47;;;6.70;99.90;;;;;;5028597;28;20053;-77
2023/04/05 12:06:24;;;;;;;2.70;2.15;;;6.80;99.90;;;;;;5044149;28;20076;-77
2023/04/05 12:08:52;;;;;;;3.20;2.60;;;6.80;99.90;;;;;;5036685;28;20041;-77
2023/04/05 12:11:29;;;;;;;1.40;1.30;;;7.00;99.90;;;;;;5025659;28;20041;-76
2023/04/05 12:14:00;;;;;;;1.88;1.77;;;7.10;99.90;;;;;;5033145;28;20183;-78
2023/04/05 12:16:26;;;;;;;7.03;2.95;;;7.20;99.90;;;;;;5024550;28;20081;-78
2023/04/05 12:18:57;;;;;;;2.22;1.35;;;7.20;99.90;;;;;;5008427;28;20071;-77
2023/04/05 12:21:25;;;;;;;1.35;1.25;;;7.20;99.90;;;;;;5024528;28;20045;-76
2023/04/05 12:23:51;;;;;;;3.38;2.45;;;7.20;99.90;;;;;;5027614;28;20073;-77
2023/04/05 12:26:17;;;;;;;3.30;1.73;;;7.20;99.90;;;;;;5045242;28;20107;-77
2023/04/05 12:29:09;;;;;;;3.67;2.53;;;7.20;99.90;;;;;;5029587;28;20107;-77
2023/04/05 12:31:37;;;;;;;1.77;1.60;;;7.20;99.90;;;;;;5019706;28;20061;-76
2023/04/05 12:34:03;;;;;;;2.47;2.25;;;7.20;99.90;;;;;;5025481;28;20049;-76
2023/04/05 12:36:32;;;;;;;2.70;2.33;;;7.20;99.90;;;;;;5024661;28;20160;-78
2023/04/05 12:38:58;;;;;;;3.45;2.10;;;7.20;99.90;;;;;;5037375;28;20036;-77
2023/04/05 12:41:28;;;;;;;7.30;3.13;;;7.30;99.90;;;;;;5043865;28;20102;-77
2023/04/05 12:43:59;;;;;;;3.38;3.08;;;7.30;99.90;;;;;;5040382;28;20040;-78
2023/04/05 12:46:41;;;;;;;4.13;2.67;;;7.40;99.90;;;;;;5029020;28;20056;-78
2023/04/05 12:49:17;;;;;;;1.73;1.60;;;7.40;99.90;;;;;;5038793;28;20045;-77
2023/04/05 12:51:45;;;;;;;2.58;2.35;;;7.40;99.90;;;;;;5030737;28;20551;-78
2023/04/05 12:54:14;;;;;;;2.88;1.80;;;7.40;99.90;;;;;;5027286;28;20111;-76
2023/04/05 12:56:41;;;;;;;2.78;1.92;;;7.50;99.90;;;;;;5040809;28;20484;-77
2023/04/05 12:59:08;;;;;;;2.03;1.80;;;7.50;99.90;;;;;;5030066;28;20128;-77
2023/04/05 13:01:33;;;;;;;3.13;1.63;;;7.60;99.90;;;;;;5041981;28;20132;-77
2023/04/05 13:04:04;;;;;;;1.88;1.58;;;7.50;99.90;;;;;;5028377;28;20127;-77
2023/04/05 13:06:30;;;;;;;3.00;2.40;;;7.50;99.90;;;;;;5040357;28;20064;-77